This is the latest recevied weather packets stored in our database for station/object DG8SF-13. If no packets are shown the sender has not sent any weather packets the latest 10 day(s).
| Time | Temp. | Humidity | Pressure | Rain* | Wind** | Luminosity | Snow |
|---|---|---|---|---|---|---|---|
| 1787734383 | 22.78° C | 73% | 1017.3 hPa | 0 mm | - | - | - |
| 1787734060 | 22.22° C | 75% | 1017.2 hPa | 0 mm | - | - | - |
| 1787733747 | 22.78° C | 73% | 1017.2 hPa | 0 mm | - | - | - |
| 1787733439 | 22.22° C | 78% | 1017.2 hPa | 0 mm | - | - | - |
| 1787733123 | 21.67° C | 78% | 1017.1 hPa | 0 mm | - | - | - |
| 1787732802 | 21.11° C | 78% | 1017.2 hPa | 0 mm | - | - | - |
| 1787732475 | 21.11° C | 80% | 1017.2 hPa | 0 mm | - | - | - |
| 1787732153 | 21.67° C | 76% | 1017.2 hPa | 0 mm | - | - | - |
| 1787731828 | 21.67° C | 77% | 1017.3 hPa | 0 mm | - | - | - |
| 1787731518 | 20.56° C | 82% | 1017.2 hPa | 0 mm | - | - | - |
| 1787731203 | 20.56° C | 81% | 1017.3 hPa | 0 mm | - | - | - |
| 1787730881 | 19.44° C | 84% | 1017.4 hPa | 0 mm | - | - | - |
| 1787730568 | 19.44° C | 82% | 1017.3 hPa | 0 mm | - | - | - |
| 1787730257 | 19.44° C | 83% | 1017.2 hPa | 0 mm | - | - | - |
| 1787729931 | 19.44° C | 85% | 1017.1 hPa | 0 mm | - | - | - |
| 1787729620 | 18.89° C | 87% | 1017.2 hPa | 0 mm | - | - | - |
| 1787729308 | 18.33° C | 87% | 1017.2 hPa | 0 mm | - | - | - |
| 1787728997 | 18.33° C | 88% | 1017.2 hPa | 0 mm | - | - | - |
| 1787728683 | 18.33° C | 87% | 1017.3 hPa | 0 mm | - | - | - |
| 1787728374 | 18.33° C | 87% | 1017.3 hPa | 0 mm | - | - | - |
| 1787728036 | 18.33° C | 87% | 1017.1 hPa | 0 mm | - | - | - |
| 1787727714 | 18.33° C | 86% | 1017.2 hPa | 0 mm | - | - | - |
| 1787727399 | 18.89° C | 80% | 1017.1 hPa | 0 mm | - | - | - |
| 1787727055 | 20° C | 80% | 1016.9 hPa | 0 mm | - | - | - |
| 1787726716 | 19.44° C | 81% | 1016.9 hPa | 0 mm | - | - | - |
* Rain latest hour (hover to see other rain measurements)
** Current wind speed in m/s (hover to see current wind gust speed)